Ana Sayfa
METAR-TAF:

METAR-TAF

Havaalanları :

Worthington Municipal Airport

Worthington, Minnesota, Amerika Birleşik Devletleri

Enlem: 43-39N, Boylam: 095-35W, yükseklik: 480 m

Güncel hava durumu gözlemi

Rapor saat 06:56 UTC de 1 saat ve 5 dakika önce yapıldı.
Rüzgar güney/güneybatıdan 5 kt
Sıcaklık 24°C
Nem 100%
Basınç 1006 hPa
Görüş mesafesi: 16.1 km
Açık gökyüzü

METAR: KOTG 250656Z AUTO 21005KT 10SM CLR 24/24 A2970 RMK AO2 SLP046 T02390239

Saat: 03:01 (08:01 UTC)


TAF: eksik

4.000'den fazla havaalanı için hava durumu gözlemleri ve tahminleri (METAR ve TAF raporları).

Kullanılabilir istasyonlar harita üzerinde sarı ve kırmızı noktalarla gösterilir.

İstasyonun adını görmek için fareyi noktanın üzerinde gezdirin.

Sonrasında hava gözlem ve tahminlerini görmek için tıklayın.

Haritayı değiştirmek için: yaklaştırmak için siyah artı işaretli yeşil düğmeye ve uzaklaştırmak için de eksi işaretli düğmeye hızla tıklayın; bitişik haritalar için yeşil okları kullanın.


METAR-TAF: